sensor_id;sensor_type;location;lat;lon;timestamp;P1;durP1;ratioP1;P2;durP2;ratioP2
4754;SDS011;2391;47.212;7.542;2024-02-26T00:01:00;0.40;;;0.40;;
4754;SDS011;2391;47.212;7.542;2024-02-26T00:03:27;0.50;;;0.40;;
4754;SDS011;2391;47.212;7.542;2024-02-26T00:05:52;0.40;;;0.40;;
4754;SDS011;2391;47.212;7.542;2024-02-26T00:08:18;0.50;;;0.43;;
4754;SDS011;2391;47.212;7.542;2024-02-26T00:10:44;0.33;;;0.33;;
4754;SDS011;2391;47.212;7.542;2024-02-26T00:13:10;1.90;;;0.50;;
4754;SDS011;2391;47.212;7.542;2024-02-26T00:15:36;0.50;;;0.50;;
4754;SDS011;2391;47.212;7.542;2024-02-26T00:18:01;0.43;;;0.43;;
4754;SDS011;2391;47.212;7.542;2024-02-26T00:20:27;4.03;;;1.23;;
4754;SDS011;2391;47.212;7.542;2024-02-26T00:22:53;0.40;;;0.40;;
4754;SDS011;2391;47.212;7.542;2024-02-26T00:25:19;3.90;;;0.40;;
4754;SDS011;2391;47.212;7.542;2024-02-26T00:27:45;0.40;;;0.40;;
4754;SDS011;2391;47.212;7.542;2024-02-26T00:30:10;0.50;;;0.50;;
4754;SDS011;2391;47.212;7.542;2024-02-26T00:32:37;0.40;;;0.40;;
4754;SDS011;2391;47.212;7.542;2024-02-26T00:35:03;0.40;;;0.40;;
4754;SDS011;2391;47.212;7.542;2024-02-26T00:37:33;0.40;;;0.40;;
4754;SDS011;2391;47.212;7.542;2024-02-26T00:39:59;0.40;;;0.40;;
4754;SDS011;2391;47.212;7.542;2024-02-26T00:42:28;0.40;;;0.40;;
4754;SDS011;2391;47.212;7.542;2024-02-26T00:44:57;0.30;;;0.30;;
4754;SDS011;2391;47.212;7.542;2024-02-26T00:47:23;0.73;;;0.40;;
4754;SDS011;2391;47.212;7.542;2024-02-26T00:49:49;0.30;;;0.30;;
4754;SDS011;2391;47.212;7.542;2024-02-26T00:52:14;2.30;;;0.50;;
4754;SDS011;2391;47.212;7.542;2024-02-26T00:54:40;0.30;;;0.30;;
4754;SDS011;2391;47.212;7.542;2024-02-26T00:57:06;0.40;;;0.30;;
4754;SDS011;2391;47.212;7.542;2024-02-26T00:59:32;0.40;;;0.40;;
4754;SDS011;2391;47.212;7.542;2024-02-26T01:01:58;0.50;;;0.50;;
4754;SDS011;2391;47.212;7.542;2024-02-26T01:04:25;1.90;;;0.30;;
4754;SDS011;2391;47.212;7.542;2024-02-26T01:06:51;0.40;;;0.40;;
4754;SDS011;2391;47.212;7.542;2024-02-26T01:09:16;0.30;;;0.30;;
4754;SDS011;2391;47.212;7.542;2024-02-26T01:11:43;0.77;;;0.50;;
4754;SDS011;2391;47.212;7.542;2024-02-26T01:14:09;0.30;;;0.30;;
4754;SDS011;2391;47.212;7.542;2024-02-26T01:16:35;1.20;;;0.40;;
4754;SDS011;2391;47.212;7.542;2024-02-26T01:19:01;0.40;;;0.40;;
4754;SDS011;2391;47.212;7.542;2024-02-26T01:21:27;0.93;;;0.50;;
4754;SDS011;2391;47.212;7.542;2024-02-26T01:23:54;0.90;;;0.30;;
4754;SDS011;2391;47.212;7.542;2024-02-26T01:26:20;1.33;;;0.43;;
4754;SDS011;2391;47.212;7.542;2024-02-26T01:28:47;0.40;;;0.40;;
4754;SDS011;2391;47.212;7.542;2024-02-26T01:31:13;0.40;;;0.40;;
4754;SDS011;2391;47.212;7.542;2024-02-26T01:33:39;0.80;;;0.50;;
4754;SDS011;2391;47.212;7.542;2024-02-26T01:36:05;0.33;;;0.33;;
4754;SDS011;2391;47.212;7.542;2024-02-26T01:38:32;1.60;;;0.40;;
4754;SDS011;2391;47.212;7.542;2024-02-26T01:40:57;0.30;;;0.30;;
4754;SDS011;2391;47.212;7.542;2024-02-26T01:43:23;0.40;;;0.40;;
4754;SDS011;2391;47.212;7.542;2024-02-26T01:45:49;0.50;;;0.50;;
4754;SDS011;2391;47.212;7.542;2024-02-26T01:48:15;0.67;;;0.40;;
4754;SDS011;2391;47.212;7.542;2024-02-26T01:50:41;0.40;;;0.40;;
4754;SDS011;2391;47.212;7.542;2024-02-26T01:53:07;1.70;;;0.43;;
4754;SDS011;2391;47.212;7.542;2024-02-26T01:55:34;0.30;;;0.30;;
4754;SDS011;2391;47.212;7.542;2024-02-26T01:58:00;0.40;;;0.40;;
4754;SDS011;2391;47.212;7.542;2024-02-26T02:00:26;1.60;;;0.40;;
4754;SDS011;2391;47.212;7.542;2024-02-26T02:02:53;0.40;;;0.40;;
4754;SDS011;2391;47.212;7.542;2024-02-26T02:05:21;0.53;;;0.50;;
4754;SDS011;2391;47.212;7.542;2024-02-26T02:07:47;0.60;;;0.60;;
4754;SDS011;2391;47.212;7.542;2024-02-26T02:10:17;0.40;;;0.40;;
4754;SDS011;2391;47.212;7.542;2024-02-26T02:12:45;0.50;;;0.50;;
4754;SDS011;2391;47.212;7.542;2024-02-26T02:15:11;0.40;;;0.40;;
4754;SDS011;2391;47.212;7.542;2024-02-26T02:17:37;0.50;;;0.40;;
4754;SDS011;2391;47.212;7.542;2024-02-26T02:20:03;3.67;;;0.50;;
4754;SDS011;2391;47.212;7.542;2024-02-26T02:22:31;0.30;;;0.30;;
4754;SDS011;2391;47.212;7.542;2024-02-26T02:24:57;0.40;;;0.40;;
4754;SDS011;2391;47.212;7.542;2024-02-26T02:27:24;0.40;;;0.40;;
4754;SDS011;2391;47.212;7.542;2024-02-26T02:29:51;0.90;;;0.60;;
4754;SDS011;2391;47.212;7.542;2024-02-26T02:32:17;0.40;;;0.40;;
4754;SDS011;2391;47.212;7.542;2024-02-26T02:34:43;1.07;;;0.57;;
4754;SDS011;2391;47.212;7.542;2024-02-26T02:37:10;0.40;;;0.40;;
4754;SDS011;2391;47.212;7.542;2024-02-26T02:39:36;0.50;;;0.40;;
4754;SDS011;2391;47.212;7.542;2024-02-26T02:42:02;0.97;;;0.50;;
4754;SDS011;2391;47.212;7.542;2024-02-26T02:44:28;0.60;;;0.50;;
4754;SDS011;2391;47.212;7.542;2024-02-26T02:46:53;4.10;;;0.60;;
4754;SDS011;2391;47.212;7.542;2024-02-26T02:49:19;0.50;;;0.40;;
4754;SDS011;2391;47.212;7.542;2024-02-26T02:51:45;0.40;;;0.40;;
4754;SDS011;2391;47.212;7.542;2024-02-26T02:54:10;0.70;;;0.50;;
4754;SDS011;2391;47.212;7.542;2024-02-26T02:56:36;0.53;;;0.53;;
4754;SDS011;2391;47.212;7.542;2024-02-26T02:59:02;0.40;;;0.40;;
4754;SDS011;2391;47.212;7.542;2024-02-26T03:01:28;0.53;;;0.53;;
4754;SDS011;2391;47.212;7.542;2024-02-26T03:03:54;0.40;;;0.40;;
4754;SDS011;2391;47.212;7.542;2024-02-26T03:06:19;0.40;;;0.40;;
4754;SDS011;2391;47.212;7.542;2024-02-26T03:08:46;0.33;;;0.33;;
4754;SDS011;2391;47.212;7.542;2024-02-26T03:11:13;0.87;;;0.40;;
4754;SDS011;2391;47.212;7.542;2024-02-26T03:13:40;0.40;;;0.40;;
4754;SDS011;2391;47.212;7.542;2024-02-26T03:16:07;0.30;;;0.30;;
4754;SDS011;2391;47.212;7.542;2024-02-26T03:18:32;0.40;;;0.40;;
4754;SDS011;2391;47.212;7.542;2024-02-26T03:20:58;0.30;;;0.30;;
4754;SDS011;2391;47.212;7.542;2024-02-26T03:23:24;0.73;;;0.30;;
4754;SDS011;2391;47.212;7.542;2024-02-26T03:25:50;0.30;;;0.30;;
4754;SDS011;2391;47.212;7.542;2024-02-26T03:28:15;0.30;;;0.30;;
4754;SDS011;2391;47.212;7.542;2024-02-26T03:30:41;0.53;;;0.30;;
4754;SDS011;2391;47.212;7.542;2024-02-26T03:33:07;0.30;;;0.30;;
4754;SDS011;2391;47.212;7.542;2024-02-26T03:35:33;0.30;;;0.30;;
4754;SDS011;2391;47.212;7.542;2024-02-26T03:37:58;0.30;;;0.30;;
4754;SDS011;2391;47.212;7.542;2024-02-26T03:40:24;0.30;;;0.30;;
4754;SDS011;2391;47.212;7.542;2024-02-26T03:42:50;0.70;;;0.30;;
4754;SDS011;2391;47.212;7.542;2024-02-26T03:45:18;0.33;;;0.33;;
4754;SDS011;2391;47.212;7.542;2024-02-26T03:47:43;0.30;;;0.30;;
4754;SDS011;2391;47.212;7.542;2024-02-26T03:50:09;0.30;;;0.30;;
4754;SDS011;2391;47.212;7.542;2024-02-26T03:52:35;0.30;;;0.30;;
4754;SDS011;2391;47.212;7.542;2024-02-26T03:55:01;0.30;;;0.30;;
4754;SDS011;2391;47.212;7.542;2024-02-26T03:57:26;0.30;;;0.30;;
4754;SDS011;2391;47.212;7.542;2024-02-26T03:59:52;1.23;;;0.40;;
4754;SDS011;2391;47.212;7.542;2024-02-26T04:02:19;0.30;;;0.30;;
4754;SDS011;2391;47.212;7.542;2024-02-26T04:04:45;0.30;;;0.30;;
4754;SDS011;2391;47.212;7.542;2024-02-26T04:07:12;0.30;;;0.30;;
4754;SDS011;2391;47.212;7.542;2024-02-26T04:09:38;0.40;;;0.40;;
4754;SDS011;2391;47.212;7.542;2024-02-26T04:12:04;0.30;;;0.30;;
4754;SDS011;2391;47.212;7.542;2024-02-26T04:14:31;2.20;;;0.30;;
4754;SDS011;2391;47.212;7.542;2024-02-26T04:16:56;0.30;;;0.30;;
4754;SDS011;2391;47.212;7.542;2024-02-26T04:19:22;0.30;;;0.30;;
4754;SDS011;2391;47.212;7.542;2024-02-26T04:21:48;0.40;;;0.40;;
4754;SDS011;2391;47.212;7.542;2024-02-26T04:24:14;1.30;;;0.37;;
4754;SDS011;2391;47.212;7.542;2024-02-26T04:26:41;0.30;;;0.30;;
4754;SDS011;2391;47.212;7.542;2024-02-26T04:29:07;0.30;;;0.30;;
4754;SDS011;2391;47.212;7.542;2024-02-26T04:31:32;0.83;;;0.30;;
4754;SDS011;2391;47.212;7.542;2024-02-26T04:33:58;0.30;;;0.30;;
4754;SDS011;2391;47.212;7.542;2024-02-26T04:36:24;0.20;;;0.20;;
4754;SDS011;2391;47.212;7.542;2024-02-26T04:38:51;0.40;;;0.40;;
4754;SDS011;2391;47.212;7.542;2024-02-26T04:41:19;0.30;;;0.30;;
4754;SDS011;2391;47.212;7.542;2024-02-26T04:43:44;0.30;;;0.30;;
4754;SDS011;2391;47.212;7.542;2024-02-26T04:46:10;0.30;;;0.30;;
4754;SDS011;2391;47.212;7.542;2024-02-26T04:48:36;0.30;;;0.30;;
4754;SDS011;2391;47.212;7.542;2024-02-26T04:51:04;0.30;;;0.30;;
4754;SDS011;2391;47.212;7.542;2024-02-26T04:53:30;0.30;;;0.30;;
4754;SDS011;2391;47.212;7.542;2024-02-26T04:55:56;0.30;;;0.30;;
4754;SDS011;2391;47.212;7.542;2024-02-26T04:58:22;0.40;;;0.40;;
4754;SDS011;2391;47.212;7.542;2024-02-26T05:00:48;0.30;;;0.30;;
4754;SDS011;2391;47.212;7.542;2024-02-26T05:03:14;0.40;;;0.40;;
4754;SDS011;2391;47.212;7.542;2024-02-26T05:05:44;0.30;;;0.30;;
4754;SDS011;2391;47.212;7.542;2024-02-26T05:08:11;0.30;;;0.30;;
4754;SDS011;2391;47.212;7.542;2024-02-26T05:10:37;0.30;;;0.30;;
4754;SDS011;2391;47.212;7.542;2024-02-26T05:13:05;0.40;;;0.40;;
4754;SDS011;2391;47.212;7.542;2024-02-26T05:15:32;0.30;;;0.30;;
4754;SDS011;2391;47.212;7.542;2024-02-26T05:17:58;0.67;;;0.30;;
4754;SDS011;2391;47.212;7.542;2024-02-26T05:20:24;0.33;;;0.33;;
4754;SDS011;2391;47.212;7.542;2024-02-26T05:22:50;0.30;;;0.30;;
4754;SDS011;2391;47.212;7.542;2024-02-26T05:25:17;0.40;;;0.40;;
4754;SDS011;2391;47.212;7.542;2024-02-26T05:27:43;0.40;;;0.40;;
4754;SDS011;2391;47.212;7.542;2024-02-26T05:30:10;0.40;;;0.40;;
4754;SDS011;2391;47.212;7.542;2024-02-26T05:32:36;0.40;;;0.40;;
4754;SDS011;2391;47.212;7.542;2024-02-26T05:35:02;0.40;;;0.40;;
4754;SDS011;2391;47.212;7.542;2024-02-26T05:37:29;0.40;;;0.40;;
4754;SDS011;2391;47.212;7.542;2024-02-26T05:39:55;0.50;;;0.50;;
4754;SDS011;2391;47.212;7.542;2024-02-26T05:42:21;0.40;;;0.40;;
4754;SDS011;2391;47.212;7.542;2024-02-26T05:44:47;0.70;;;0.50;;
4754;SDS011;2391;47.212;7.542;2024-02-26T05:47:12;0.40;;;0.40;;
4754;SDS011;2391;47.212;7.542;2024-02-26T05:49:42;0.33;;;0.33;;
4754;SDS011;2391;47.212;7.542;2024-02-26T05:52:08;0.30;;;0.30;;
4754;SDS011;2391;47.212;7.542;2024-02-26T05:54:34;0.40;;;0.40;;
4754;SDS011;2391;47.212;7.542;2024-02-26T05:57:01;0.30;;;0.30;;
4754;SDS011;2391;47.212;7.542;2024-02-26T05:59:27;0.40;;;0.40;;
4754;SDS011;2391;47.212;7.542;2024-02-26T06:01:53;0.73;;;0.50;;
4754;SDS011;2391;47.212;7.542;2024-02-26T06:04:19;0.50;;;0.50;;
4754;SDS011;2391;47.212;7.542;2024-02-26T06:06:44;0.30;;;0.30;;
4754;SDS011;2391;47.212;7.542;2024-02-26T06:09:13;0.40;;;0.40;;
4754;SDS011;2391;47.212;7.542;2024-02-26T06:11:39;0.50;;;0.50;;
4754;SDS011;2391;47.212;7.542;2024-02-26T06:14:04;0.37;;;0.37;;
4754;SDS011;2391;47.212;7.542;2024-02-26T06:16:30;0.40;;;0.40;;
4754;SDS011;2391;47.212;7.542;2024-02-26T06:18:56;0.37;;;0.37;;
4754;SDS011;2391;47.212;7.542;2024-02-26T06:21:23;0.40;;;0.40;;
4754;SDS011;2391;47.212;7.542;2024-02-26T06:23:49;0.60;;;0.40;;
4754;SDS011;2391;47.212;7.542;2024-02-26T06:26:16;0.50;;;0.50;;
4754;SDS011;2391;47.212;7.542;2024-02-26T06:28:42;0.40;;;0.40;;
4754;SDS011;2391;47.212;7.542;2024-02-26T06:31:08;0.40;;;0.40;;
4754;SDS011;2391;47.212;7.542;2024-02-26T06:33:34;0.40;;;0.40;;
4754;SDS011;2391;47.212;7.542;2024-02-26T06:35:59;0.40;;;0.40;;
4754;SDS011;2391;47.212;7.542;2024-02-26T06:38:25;0.40;;;0.40;;
4754;SDS011;2391;47.212;7.542;2024-02-26T06:40:51;0.60;;;0.60;;
4754;SDS011;2391;47.212;7.542;2024-02-26T06:43:17;0.50;;;0.50;;
4754;SDS011;2391;47.212;7.542;2024-02-26T06:45:43;1.20;;;0.40;;
4754;SDS011;2391;47.212;7.542;2024-02-26T06:48:08;0.40;;;0.40;;
4754;SDS011;2391;47.212;7.542;2024-02-26T06:50:34;1.60;;;0.50;;
4754;SDS011;2391;47.212;7.542;2024-02-26T06:53:00;0.40;;;0.40;;
4754;SDS011;2391;47.212;7.542;2024-02-26T06:55:26;0.50;;;0.50;;
4754;SDS011;2391;47.212;7.542;2024-02-26T06:57:52;0.40;;;0.40;;
4754;SDS011;2391;47.212;7.542;2024-02-26T07:00:18;0.43;;;0.43;;
4754;SDS011;2391;47.212;7.542;2024-02-26T07:02:44;3.83;;;0.57;;
4754;SDS011;2391;47.212;7.542;2024-02-26T07:05:10;1.43;;;0.73;;
4754;SDS011;2391;47.212;7.542;2024-02-26T07:07:36;0.53;;;0.53;;
4754;SDS011;2391;47.212;7.542;2024-02-26T07:10:01;0.50;;;0.50;;
4754;SDS011;2391;47.212;7.542;2024-02-26T07:12:31;0.50;;;0.50;;
4754;SDS011;2391;47.212;7.542;2024-02-26T07:14:57;0.50;;;0.50;;
4754;SDS011;2391;47.212;7.542;2024-02-26T07:17:23;1.30;;;0.50;;
4754;SDS011;2391;47.212;7.542;2024-02-26T07:19:49;0.50;;;0.50;;
4754;SDS011;2391;47.212;7.542;2024-02-26T07:22:15;0.60;;;0.60;;
4754;SDS011;2391;47.212;7.542;2024-02-26T07:24:41;0.50;;;0.50;;
4754;SDS011;2391;47.212;7.542;2024-02-26T07:27:07;0.50;;;0.50;;
4754;SDS011;2391;47.212;7.542;2024-02-26T07:29:33;0.63;;;0.60;;
4754;SDS011;2391;47.212;7.542;2024-02-26T07:31:58;0.70;;;0.70;;
4754;SDS011;2391;47.212;7.542;2024-02-26T07:34:24;0.90;;;0.90;;
4754;SDS011;2391;47.212;7.542;2024-02-26T07:36:52;0.87;;;0.87;;
4754;SDS011;2391;47.212;7.542;2024-02-26T07:39:19;0.83;;;0.83;;
4754;SDS011;2391;47.212;7.542;2024-02-26T07:41:45;2.10;;;0.60;;
4754;SDS011;2391;47.212;7.542;2024-02-26T07:44:13;0.40;;;0.40;;
4754;SDS011;2391;47.212;7.542;2024-02-26T07:46:39;6.00;;;0.60;;
4754;SDS011;2391;47.212;7.542;2024-02-26T07:49:05;0.67;;;0.63;;
4754;SDS011;2391;47.212;7.542;2024-02-26T07:51:31;0.47;;;0.47;;
4754;SDS011;2391;47.212;7.542;2024-02-26T07:53:56;0.60;;;0.60;;
4754;SDS011;2391;47.212;7.542;2024-02-26T07:56:22;1.00;;;0.80;;
4754;SDS011;2391;47.212;7.542;2024-02-26T07:58:48;0.50;;;0.50;;
4754;SDS011;2391;47.212;7.542;2024-02-26T08:01:14;0.40;;;0.40;;
4754;SDS011;2391;47.212;7.542;2024-02-26T08:03:40;0.60;;;0.60;;
4754;SDS011;2391;47.212;7.542;2024-02-26T08:06:07;0.67;;;0.67;;
4754;SDS011;2391;47.212;7.542;2024-02-26T08:08:34;0.60;;;0.60;;
4754;SDS011;2391;47.212;7.542;2024-02-26T08:10:59;0.50;;;0.50;;
4754;SDS011;2391;47.212;7.542;2024-02-26T08:13:25;0.70;;;0.70;;
4754;SDS011;2391;47.212;7.542;2024-02-26T08:15:51;0.63;;;0.57;;
4754;SDS011;2391;47.212;7.542;2024-02-26T08:18:18;0.50;;;0.50;;
4754;SDS011;2391;47.212;7.542;2024-02-26T08:20:44;0.40;;;0.40;;
4754;SDS011;2391;47.212;7.542;2024-02-26T08:23:10;1.90;;;0.70;;
4754;SDS011;2391;47.212;7.542;2024-02-26T08:25:36;0.50;;;0.50;;
4754;SDS011;2391;47.212;7.542;2024-02-26T08:28:02;0.47;;;0.47;;
4754;SDS011;2391;47.212;7.542;2024-02-26T08:30:28;1.63;;;0.50;;
4754;SDS011;2391;47.212;7.542;2024-02-26T08:32:54;0.47;;;0.47;;
4754;SDS011;2391;47.212;7.542;2024-02-26T08:35:20;0.60;;;0.60;;
4754;SDS011;2391;47.212;7.542;2024-02-26T08:37:46;3.70;;;0.80;;
4754;SDS011;2391;47.212;7.542;2024-02-26T08:40:13;0.50;;;0.50;;
4754;SDS011;2391;47.212;7.542;2024-02-26T08:42:40;0.53;;;0.53;;
4754;SDS011;2391;47.212;7.542;2024-02-26T08:45:07;0.83;;;0.50;;
4754;SDS011;2391;47.212;7.542;2024-02-26T08:47:33;0.50;;;0.50;;
4754;SDS011;2391;47.212;7.542;2024-02-26T08:49:59;0.50;;;0.50;;
4754;SDS011;2391;47.212;7.542;2024-02-26T08:52:27;0.50;;;0.50;;
4754;SDS011;2391;47.212;7.542;2024-02-26T08:54:53;0.60;;;0.60;;
4754;SDS011;2391;47.212;7.542;2024-02-26T08:57:19;0.53;;;0.53;;
4754;SDS011;2391;47.212;7.542;2024-02-26T09:06:09;7.77;;;0.80;;
4754;SDS011;2391;47.212;7.542;2024-02-26T09:08:40;2.40;;;0.60;;
4754;SDS011;2391;47.212;7.542;2024-02-26T09:11:05;0.60;;;0.60;;
4754;SDS011;2391;47.212;7.542;2024-02-26T09:13:32;0.53;;;0.53;;
4754;SDS011;2391;47.212;7.542;2024-02-26T09:15:58;4.43;;;0.57;;
4754;SDS011;2391;47.212;7.542;2024-02-26T09:18:24;0.60;;;0.60;;
4754;SDS011;2391;47.212;7.542;2024-02-26T09:24:12;0.60;;;0.60;;
4754;SDS011;2391;47.212;7.542;2024-02-26T09:26:38;0.50;;;0.50;;
4754;SDS011;2391;47.212;7.542;2024-02-26T09:32:25;0.80;;;0.80;;
4754;SDS011;2391;47.212;7.542;2024-02-26T09:34:51;0.80;;;0.80;;
4754;SDS011;2391;47.212;7.542;2024-02-26T09:37:17;0.60;;;0.60;;
4754;SDS011;2391;47.212;7.542;2024-02-26T09:39:43;0.67;;;0.67;;
4754;SDS011;2391;47.212;7.542;2024-02-26T09:42:09;0.60;;;0.60;;
4754;SDS011;2391;47.212;7.542;2024-02-26T09:44:36;0.60;;;0.60;;
4754;SDS011;2391;47.212;7.542;2024-02-26T09:50:26;0.43;;;0.43;;
4754;SDS011;2391;47.212;7.542;2024-02-26T09:52:52;0.60;;;0.60;;
4754;SDS011;2391;47.212;7.542;2024-02-26T09:55:20;0.40;;;0.40;;
4754;SDS011;2391;47.212;7.542;2024-02-26T09:57:46;0.50;;;0.50;;
4754;SDS011;2391;47.212;7.542;2024-02-26T10:00:19;0.50;;;0.50;;
4754;SDS011;2391;47.212;7.542;2024-02-26T10:02:47;0.50;;;0.50;;
4754;SDS011;2391;47.212;7.542;2024-02-26T10:05:17;1.63;;;0.60;;
4754;SDS011;2391;47.212;7.542;2024-02-26T10:07:46;1.13;;;0.50;;
4754;SDS011;2391;47.212;7.542;2024-02-26T10:10:17;0.60;;;0.60;;
4754;SDS011;2391;47.212;7.542;2024-02-26T10:12:40;0.60;;;0.60;;
4754;SDS011;2391;47.212;7.542;2024-02-26T10:15:06;0.53;;;0.53;;
4754;SDS011;2391;47.212;7.542;2024-02-26T10:17:33;0.60;;;0.60;;
4754;SDS011;2391;47.212;7.542;2024-02-26T10:20:10;0.50;;;0.50;;
4754;SDS011;2391;47.212;7.542;2024-02-26T10:22:41;0.50;;;0.50;;
4754;SDS011;2391;47.212;7.542;2024-02-26T10:25:07;0.80;;;0.80;;
4754;SDS011;2391;47.212;7.542;2024-02-26T10:27:34;0.57;;;0.57;;
4754;SDS011;2391;47.212;7.542;2024-02-26T10:30:19;0.60;;;0.60;;
4754;SDS011;2391;47.212;7.542;2024-02-26T10:32:45;0.50;;;0.50;;
4754;SDS011;2391;47.212;7.542;2024-02-26T10:35:12;0.60;;;0.60;;
4754;SDS011;2391;47.212;7.542;2024-02-26T10:37:42;1.10;;;0.57;;
4754;SDS011;2391;47.212;7.542;2024-02-26T10:40:11;0.60;;;0.60;;
4754;SDS011;2391;47.212;7.542;2024-02-26T10:42:56;0.73;;;0.73;;
4754;SDS011;2391;47.212;7.542;2024-02-26T10:45:23;0.60;;;0.60;;
4754;SDS011;2391;47.212;7.542;2024-02-26T10:47:50;0.50;;;0.50;;
4754;SDS011;2391;47.212;7.542;2024-02-26T10:50:18;1.83;;;1.27;;
4754;SDS011;2391;47.212;7.542;2024-02-26T10:52:47;0.70;;;0.70;;
4754;SDS011;2391;47.212;7.542;2024-02-26T10:55:16;1.00;;;0.73;;
4754;SDS011;2391;47.212;7.542;2024-02-26T11:01:11;0.50;;;0.50;;
4754;SDS011;2391;47.212;7.542;2024-02-26T11:07:05;0.70;;;0.70;;
4754;SDS011;2391;47.212;7.542;2024-02-26T11:09:31;0.50;;;0.50;;
4754;SDS011;2391;47.212;7.542;2024-02-26T12:08:22;0.60;;;0.60;;
4754;SDS011;2391;47.212;7.542;2024-02-26T12:10:51;0.70;;;0.70;;
4754;SDS011;2391;47.212;7.542;2024-02-26T12:13:21;0.60;;;0.60;;
4754;SDS011;2391;47.212;7.542;2024-02-26T12:15:56;0.83;;;0.70;;
4754;SDS011;2391;47.212;7.542;2024-02-26T12:18:23;0.80;;;0.70;;
4754;SDS011;2391;47.212;7.542;2024-02-26T12:23:27;0.70;;;0.70;;
4754;SDS011;2391;47.212;7.542;2024-02-26T12:25:58;0.63;;;0.63;;
4754;SDS011;2391;47.212;7.542;2024-02-26T12:28:29;0.80;;;0.80;;
4754;SDS011;2391;47.212;7.542;2024-02-26T12:34:00;0.60;;;0.57;;
4754;SDS011;2391;47.212;7.542;2024-02-26T12:36:29;0.60;;;0.60;;
4754;SDS011;2391;47.212;7.542;2024-02-26T12:38:55;0.50;;;0.50;;
4754;SDS011;2391;47.212;7.542;2024-02-26T12:41:21;1.87;;;0.70;;
4754;SDS011;2391;47.212;7.542;2024-02-26T12:43:48;0.77;;;0.67;;
4754;SDS011;2391;47.212;7.542;2024-02-26T12:46:14;0.50;;;0.50;;
4754;SDS011;2391;47.212;7.542;2024-02-26T12:48:46;0.70;;;0.70;;
4754;SDS011;2391;47.212;7.542;2024-02-26T12:51:12;0.53;;;0.53;;
4754;SDS011;2391;47.212;7.542;2024-02-26T12:53:41;0.60;;;0.50;;
4754;SDS011;2391;47.212;7.542;2024-02-26T12:56:07;0.50;;;0.50;;
4754;SDS011;2391;47.212;7.542;2024-02-26T12:58:34;0.50;;;0.50;;
4754;SDS011;2391;47.212;7.542;2024-02-26T13:01:03;0.60;;;0.60;;
4754;SDS011;2391;47.212;7.542;2024-02-26T13:03:31;0.70;;;0.53;;
4754;SDS011;2391;47.212;7.542;2024-02-26T13:05:58;2.23;;;0.47;;
4754;SDS011;2391;47.212;7.542;2024-02-26T13:08:25;0.40;;;0.40;;
4754;SDS011;2391;47.212;7.542;2024-02-26T13:10:50;0.50;;;0.50;;
4754;SDS011;2391;47.212;7.542;2024-02-26T13:13:20;0.50;;;0.50;;
4754;SDS011;2391;47.212;7.542;2024-02-26T13:15:46;0.43;;;0.43;;
4754;SDS011;2391;47.212;7.542;2024-02-26T13:18:13;0.40;;;0.40;;
4754;SDS011;2391;47.212;7.542;2024-02-26T13:20:40;0.50;;;0.50;;
4754;SDS011;2391;47.212;7.542;2024-02-26T13:30:01;0.70;;;0.70;;
4754;SDS011;2391;47.212;7.542;2024-02-26T13:32:36;1.90;;;0.70;;
4754;SDS011;2391;47.212;7.542;2024-02-26T13:35:07;0.40;;;0.40;;
4754;SDS011;2391;47.212;7.542;2024-02-26T13:37:38;0.57;;;0.57;;
4754;SDS011;2391;47.212;7.542;2024-02-26T13:40:08;0.87;;;0.50;;
4754;SDS011;2391;47.212;7.542;2024-02-26T13:42:36;0.50;;;0.50;;
4754;SDS011;2391;47.212;7.542;2024-02-26T13:45:03;0.43;;;0.43;;
4754;SDS011;2391;47.212;7.542;2024-02-26T13:47:34;0.60;;;0.60;;
4754;SDS011;2391;47.212;7.542;2024-02-26T13:50:00;1.13;;;0.57;;
4754;SDS011;2391;47.212;7.542;2024-02-26T13:52:27;0.50;;;0.50;;
4754;SDS011;2391;47.212;7.542;2024-02-26T13:54:53;4.03;;;0.50;;
4754;SDS011;2391;47.212;7.542;2024-02-26T13:57:19;0.50;;;0.50;;
4754;SDS011;2391;47.212;7.542;2024-02-26T13:59:45;0.50;;;0.50;;
4754;SDS011;2391;47.212;7.542;2024-02-26T14:02:11;0.60;;;0.60;;
4754;SDS011;2391;47.212;7.542;2024-02-26T14:04:37;0.50;;;0.50;;
4754;SDS011;2391;47.212;7.542;2024-02-26T14:07:03;0.40;;;0.40;;
4754;SDS011;2391;47.212;7.542;2024-02-26T14:09:30;0.80;;;0.70;;
4754;SDS011;2391;47.212;7.542;2024-02-26T14:11:58;1.03;;;0.60;;
4754;SDS011;2391;47.212;7.542;2024-02-26T14:14:27;0.50;;;0.50;;
4754;SDS011;2391;47.212;7.542;2024-02-26T14:16:53;0.60;;;0.60;;
4754;SDS011;2391;47.212;7.542;2024-02-26T14:19:19;0.53;;;0.53;;
4754;SDS011;2391;47.212;7.542;2024-02-26T14:21:45;0.60;;;0.60;;
4754;SDS011;2391;47.212;7.542;2024-02-26T14:24:13;0.63;;;0.60;;
4754;SDS011;2391;47.212;7.542;2024-02-26T14:26:39;0.50;;;0.50;;
4754;SDS011;2391;47.212;7.542;2024-02-26T14:29:05;0.50;;;0.50;;
4754;SDS011;2391;47.212;7.542;2024-02-26T14:31:32;0.50;;;0.50;;
4754;SDS011;2391;47.212;7.542;2024-02-26T14:33:58;0.50;;;0.50;;
4754;SDS011;2391;47.212;7.542;2024-02-26T14:36:24;0.50;;;0.50;;
4754;SDS011;2391;47.212;7.542;2024-02-26T14:38:51;0.40;;;0.40;;
4754;SDS011;2391;47.212;7.542;2024-02-26T14:41:16;0.40;;;0.40;;
4754;SDS011;2391;47.212;7.542;2024-02-26T14:43:42;0.93;;;0.50;;
4754;SDS011;2391;47.212;7.542;2024-02-26T14:46:08;0.40;;;0.40;;
4754;SDS011;2391;47.212;7.542;2024-02-26T14:48:33;0.47;;;0.47;;
4754;SDS011;2391;47.212;7.542;2024-02-26T14:51:00;0.40;;;0.40;;
4754;SDS011;2391;47.212;7.542;2024-02-26T14:53:26;0.40;;;0.40;;
4754;SDS011;2391;47.212;7.542;2024-02-26T14:55:52;0.40;;;0.40;;
4754;SDS011;2391;47.212;7.542;2024-02-26T14:58:18;0.50;;;0.50;;
4754;SDS011;2391;47.212;7.542;2024-02-26T15:00:44;0.60;;;0.60;;
4754;SDS011;2391;47.212;7.542;2024-02-26T15:03:10;2.33;;;0.87;;
4754;SDS011;2391;47.212;7.542;2024-02-26T15:05:35;1.90;;;0.70;;
4754;SDS011;2391;47.212;7.542;2024-02-26T15:08:02;1.10;;;0.70;;
4754;SDS011;2391;47.212;7.542;2024-02-26T15:10:28;2.20;;;0.90;;
4754;SDS011;2391;47.212;7.542;2024-02-26T15:12:55;3.03;;;0.80;;
4754;SDS011;2391;47.212;7.542;2024-02-26T15:15:21;1.33;;;0.70;;
4754;SDS011;2391;47.212;7.542;2024-02-26T15:17:47;1.07;;;0.70;;
4754;SDS011;2391;47.212;7.542;2024-02-26T15:20:14;0.80;;;0.80;;
4754;SDS011;2391;47.212;7.542;2024-02-26T15:22:41;0.87;;;0.80;;
4754;SDS011;2391;47.212;7.542;2024-02-26T15:25:07;0.60;;;0.60;;
4754;SDS011;2391;47.212;7.542;2024-02-26T15:27:34;3.03;;;0.80;;
4754;SDS011;2391;47.212;7.542;2024-02-26T15:30:00;0.80;;;0.80;;
4754;SDS011;2391;47.212;7.542;2024-02-26T15:32:26;3.20;;;0.97;;
4754;SDS011;2391;47.212;7.542;2024-02-26T15:34:55;1.17;;;0.90;;
4754;SDS011;2391;47.212;7.542;2024-02-26T15:37:21;0.90;;;0.90;;
4754;SDS011;2391;47.212;7.542;2024-02-26T15:39:47;0.80;;;0.80;;
4754;SDS011;2391;47.212;7.542;2024-02-26T15:42:13;1.00;;;0.90;;
4754;SDS011;2391;47.212;7.542;2024-02-26T15:44:40;1.17;;;1.07;;
4754;SDS011;2391;47.212;7.542;2024-02-26T15:47:06;2.60;;;1.10;;
4754;SDS011;2391;47.212;7.542;2024-02-26T15:49:32;1.43;;;0.80;;
4754;SDS011;2391;47.212;7.542;2024-02-26T15:51:59;0.90;;;0.70;;
4754;SDS011;2391;47.212;7.542;2024-02-26T15:54:25;0.97;;;0.80;;
4754;SDS011;2391;47.212;7.542;2024-02-26T15:56:52;0.90;;;0.90;;
4754;SDS011;2391;47.212;7.542;2024-02-26T15:59:20;6.30;;;0.90;;
4754;SDS011;2391;47.212;7.542;2024-02-26T16:01:46;0.80;;;0.80;;
4754;SDS011;2391;47.212;7.542;2024-02-26T16:04:13;1.00;;;0.90;;
4754;SDS011;2391;47.212;7.542;2024-02-26T16:06:43;1.07;;;0.90;;
4754;SDS011;2391;47.212;7.542;2024-02-26T16:09:10;1.07;;;1.07;;
4754;SDS011;2391;47.212;7.542;2024-02-26T16:11:36;3.10;;;0.83;;
4754;SDS011;2391;47.212;7.542;2024-02-26T16:14:25;1.83;;;1.03;;
4754;SDS011;2391;47.212;7.542;2024-02-26T16:17:01;8.67;;;5.47;;
4754;SDS011;2391;47.212;7.542;2024-02-26T16:19:28;2.77;;;2.57;;
4754;SDS011;2391;47.212;7.542;2024-02-26T16:21:54;2.37;;;1.73;;
4754;SDS011;2391;47.212;7.542;2024-02-26T16:24:20;9.30;;;5.43;;
4754;SDS011;2391;47.212;7.542;2024-02-26T16:26:46;5.90;;;3.90;;
4754;SDS011;2391;47.212;7.542;2024-02-26T16:29:12;3.60;;;3.30;;
4754;SDS011;2391;47.212;7.542;2024-02-26T16:31:38;4.57;;;2.17;;
4754;SDS011;2391;47.212;7.542;2024-02-26T16:34:03;1.50;;;1.20;;
4754;SDS011;2391;47.212;7.542;2024-02-26T16:36:29;2.10;;;1.17;;
4754;SDS011;2391;47.212;7.542;2024-02-26T16:38:55;2.57;;;1.07;;
4754;SDS011;2391;47.212;7.542;2024-02-26T16:41:21;2.40;;;1.20;;
4754;SDS011;2391;47.212;7.542;2024-02-26T16:43:50;1.33;;;1.00;;